sensor_id;sensor_type;location;lat;lon;timestamp;P1;durP1;ratioP1;P2;durP2;ratioP2
76023;SDS011;64719;52.124;6.226;2024-01-15T00:01:03;9.73;;;3.25;;
76023;SDS011;64719;52.124;6.226;2024-01-15T00:03:31;10.23;;;3.28;;
76023;SDS011;64719;52.124;6.226;2024-01-15T00:05:57;7.47;;;2.95;;
76023;SDS011;64719;52.124;6.226;2024-01-15T00:08:24;7.57;;;3.25;;
76023;SDS011;64719;52.124;6.226;2024-01-15T00:10:50;6.68;;;3.15;;
76023;SDS011;64719;52.124;6.226;2024-01-15T00:13:16;10.35;;;2.90;;
76023;SDS011;64719;52.124;6.226;2024-01-15T00:15:43;8.98;;;2.92;;
76023;SDS011;64719;52.124;6.226;2024-01-15T00:18:09;8.07;;;3.00;;
76023;SDS011;64719;52.124;6.226;2024-01-15T00:20:37;17.73;;;2.83;;
76023;SDS011;64719;52.124;6.226;2024-01-15T00:23:03;3.33;;;1.70;;
76023;SDS011;64719;52.124;6.226;2024-01-15T00:25:29;7.60;;;1.98;;
76023;SDS011;64719;52.124;6.226;2024-01-15T00:27:56;9.60;;;2.35;;
76023;SDS011;64719;52.124;6.226;2024-01-15T00:30:22;9.52;;;1.90;;
76023;SDS011;64719;52.124;6.226;2024-01-15T00:32:49;3.80;;;1.67;;
76023;SDS011;64719;52.124;6.226;2024-01-15T00:35:15;10.20;;;1.92;;
76023;SDS011;64719;52.124;6.226;2024-01-15T00:37:43;5.72;;;2.10;;
76023;SDS011;64719;52.124;6.226;2024-01-15T00:40:09;9.38;;;1.83;;
76023;SDS011;64719;52.124;6.226;2024-01-15T00:42:36;10.32;;;2.08;;
76023;SDS011;64719;52.124;6.226;2024-01-15T00:45:02;9.60;;;1.65;;
76023;SDS011;64719;52.124;6.226;2024-01-15T00:47:30;4.95;;;1.77;;
76023;SDS011;64719;52.124;6.226;2024-01-15T00:49:56;13.02;;;1.92;;
76023;SDS011;64719;52.124;6.226;2024-01-15T00:52:23;6.70;;;1.50;;
76023;SDS011;64719;52.124;6.226;2024-01-15T00:54:50;2.60;;;0.95;;
76023;SDS011;64719;52.124;6.226;2024-01-15T00:57:17;8.70;;;1.20;;
76023;SDS011;64719;52.124;6.226;2024-01-15T00:59:44;5.93;;;1.60;;
76023;SDS011;64719;52.124;6.226;2024-01-15T01:02:10;5.43;;;1.40;;
76023;SDS011;64719;52.124;6.226;2024-01-15T01:04:36;4.13;;;1.58;;
76023;SDS011;64719;52.124;6.226;2024-01-15T01:07:03;4.60;;;1.30;;
76023;SDS011;64719;52.124;6.226;2024-01-15T01:09:29;6.85;;;1.73;;
76023;SDS011;64719;52.124;6.226;2024-01-15T01:11:57;4.38;;;0.90;;
76023;SDS011;64719;52.124;6.226;2024-01-15T01:14:23;7.28;;;1.30;;
76023;SDS011;64719;52.124;6.226;2024-01-15T01:16:50;5.68;;;1.23;;
76023;SDS011;64719;52.124;6.226;2024-01-15T01:19:16;9.85;;;1.85;;
76023;SDS011;64719;52.124;6.226;2024-01-15T01:21:42;10.07;;;1.70;;
76023;SDS011;64719;52.124;6.226;2024-01-15T01:24:09;2.65;;;1.52;;
76023;SDS011;64719;52.124;6.226;2024-01-15T01:26:35;2.65;;;0.88;;
76023;SDS011;64719;52.124;6.226;2024-01-15T01:29:03;4.57;;;0.95;;
76023;SDS011;64719;52.124;6.226;2024-01-15T01:31:29;11.32;;;1.58;;
76023;SDS011;64719;52.124;6.226;2024-01-15T01:33:56;3.88;;;1.25;;
76023;SDS011;64719;52.124;6.226;2024-01-15T01:36:22;9.52;;;1.38;;
76023;SDS011;64719;52.124;6.226;2024-01-15T01:38:48;6.95;;;1.00;;
76023;SDS011;64719;52.124;6.226;2024-01-15T01:41:15;9.98;;;2.20;;
76023;SDS011;64719;52.124;6.226;2024-01-15T01:43:41;6.10;;;1.42;;
76023;SDS011;64719;52.124;6.226;2024-01-15T01:46:09;8.40;;;1.42;;
76023;SDS011;64719;52.124;6.226;2024-01-15T01:48:35;3.67;;;1.30;;
76023;SDS011;64719;52.124;6.226;2024-01-15T01:51:02;7.07;;;1.27;;
76023;SDS011;64719;52.124;6.226;2024-01-15T01:53:28;9.93;;;1.30;;
76023;SDS011;64719;52.124;6.226;2024-01-15T01:55:55;10.82;;;1.50;;
76023;SDS011;64719;52.124;6.226;2024-01-15T01:58:22;12.65;;;1.33;;
76023;SDS011;64719;52.124;6.226;2024-01-15T02:00:49;8.23;;;1.15;;
76023;SDS011;64719;52.124;6.226;2024-01-15T02:03:16;12.93;;;1.70;;
76023;SDS011;64719;52.124;6.226;2024-01-15T02:05:43;3.63;;;1.05;;
76023;SDS011;64719;52.124;6.226;2024-01-15T02:08:10;6.88;;;1.52;;
76023;SDS011;64719;52.124;6.226;2024-01-15T02:10:36;10.18;;;1.13;;
76023;SDS011;64719;52.124;6.226;2024-01-15T02:13:03;8.27;;;1.15;;
76023;SDS011;64719;52.124;6.226;2024-01-15T02:15:29;4.53;;;0.98;;
76023;SDS011;64719;52.124;6.226;2024-01-15T02:17:56;7.30;;;1.50;;
76023;SDS011;64719;52.124;6.226;2024-01-15T02:20:24;2.92;;;0.90;;
76023;SDS011;64719;52.124;6.226;2024-01-15T02:22:50;4.65;;;0.88;;
76023;SDS011;64719;52.124;6.226;2024-01-15T02:25:18;4.75;;;0.88;;
76023;SDS011;64719;52.124;6.226;2024-01-15T02:27:45;5.80;;;1.10;;
76023;SDS011;64719;52.124;6.226;2024-01-15T02:30:12;4.85;;;1.05;;
76023;SDS011;64719;52.124;6.226;2024-01-15T02:32:38;4.97;;;0.77;;
76023;SDS011;64719;52.124;6.226;2024-01-15T02:35:05;8.95;;;1.52;;
76023;SDS011;64719;52.124;6.226;2024-01-15T02:37:31;5.00;;;1.35;;
76023;SDS011;64719;52.124;6.226;2024-01-15T02:39:57;7.15;;;1.73;;
76023;SDS011;64719;52.124;6.226;2024-01-15T02:42:27;5.45;;;1.17;;
76023;SDS011;64719;52.124;6.226;2024-01-15T02:44:53;3.90;;;0.75;;
76023;SDS011;64719;52.124;6.226;2024-01-15T02:47:19;4.80;;;1.00;;
76023;SDS011;64719;52.124;6.226;2024-01-15T02:49:46;8.95;;;1.13;;
76023;SDS011;64719;52.124;6.226;2024-01-15T02:52:12;10.90;;;1.52;;
76023;SDS011;64719;52.124;6.226;2024-01-15T02:54:38;7.28;;;1.25;;
76023;SDS011;64719;52.124;6.226;2024-01-15T02:57:05;7.63;;;1.30;;
76023;SDS011;64719;52.124;6.226;2024-01-15T02:59:32;3.40;;;1.20;;
76023;SDS011;64719;52.124;6.226;2024-01-15T03:01:59;8.50;;;1.40;;
76023;SDS011;64719;52.124;6.226;2024-01-15T03:04:25;5.75;;;1.20;;
76023;SDS011;64719;52.124;6.226;2024-01-15T03:06:51;4.63;;;1.10;;
76023;SDS011;64719;52.124;6.226;2024-01-15T03:09:18;3.90;;;1.08;;
76023;SDS011;64719;52.124;6.226;2024-01-15T03:11:44;4.68;;;1.13;;
76023;SDS011;64719;52.124;6.226;2024-01-15T03:14:10;6.63;;;1.23;;
76023;SDS011;64719;52.124;6.226;2024-01-15T03:16:38;9.00;;;1.45;;
76023;SDS011;64719;52.124;6.226;2024-01-15T03:19:04;4.80;;;2.45;;
76023;SDS011;64719;52.124;6.226;2024-01-15T03:21:31;3.50;;;1.08;;
76023;SDS011;64719;52.124;6.226;2024-01-15T03:23:57;2.53;;;0.80;;
76023;SDS011;64719;52.124;6.226;2024-01-15T03:26:23;10.63;;;1.38;;
76023;SDS011;64719;52.124;6.226;2024-01-15T03:28:50;8.75;;;1.55;;
76023;SDS011;64719;52.124;6.226;2024-01-15T03:31:16;3.63;;;0.95;;
76023;SDS011;64719;52.124;6.226;2024-01-15T03:33:44;4.22;;;1.20;;
76023;SDS011;64719;52.124;6.226;2024-01-15T03:36:10;5.60;;;1.17;;
76023;SDS011;64719;52.124;6.226;2024-01-15T03:38:39;4.60;;;1.05;;
76023;SDS011;64719;52.124;6.226;2024-01-15T03:41:05;13.15;;;1.80;;
76023;SDS011;64719;52.124;6.226;2024-01-15T03:43:32;3.95;;;1.08;;
76023;SDS011;64719;52.124;6.226;2024-01-15T03:45:58;5.95;;;1.42;;
76023;SDS011;64719;52.124;6.226;2024-01-15T03:48:24;12.00;;;1.35;;
76023;SDS011;64719;52.124;6.226;2024-01-15T03:50:52;11.73;;;2.00;;
76023;SDS011;64719;52.124;6.226;2024-01-15T03:53:18;4.45;;;1.25;;
76023;SDS011;64719;52.124;6.226;2024-01-15T03:55:45;3.20;;;1.27;;
76023;SDS011;64719;52.124;6.226;2024-01-15T03:58:11;1.25;;;0.75;;
76023;SDS011;64719;52.124;6.226;2024-01-15T04:00:39;4.15;;;0.80;;
76023;SDS011;64719;52.124;6.226;2024-01-15T04:03:06;2.92;;;0.93;;
76023;SDS011;64719;52.124;6.226;2024-01-15T04:05:32;11.27;;;1.20;;
76023;SDS011;64719;52.124;6.226;2024-01-15T04:08:00;2.42;;;0.73;;
76023;SDS011;64719;52.124;6.226;2024-01-15T04:10:26;3.60;;;0.88;;
76023;SDS011;64719;52.124;6.226;2024-01-15T04:12:53;1.75;;;0.85;;
76023;SDS011;64719;52.124;6.226;2024-01-15T04:15:19;9.05;;;1.20;;
76023;SDS011;64719;52.124;6.226;2024-01-15T04:17:45;2.97;;;0.82;;
76023;SDS011;64719;52.124;6.226;2024-01-15T04:20:12;3.88;;;0.75;;
76023;SDS011;64719;52.124;6.226;2024-01-15T04:22:38;6.40;;;0.60;;
76023;SDS011;64719;52.124;6.226;2024-01-15T04:25:06;2.70;;;0.70;;
76023;SDS011;64719;52.124;6.226;2024-01-15T04:27:33;6.53;;;0.80;;
76023;SDS011;64719;52.124;6.226;2024-01-15T04:29:59;1.30;;;0.60;;
76023;SDS011;64719;52.124;6.226;2024-01-15T04:32:25;4.55;;;0.95;;
76023;SDS011;64719;52.124;6.226;2024-01-15T04:34:52;3.75;;;0.73;;
76023;SDS011;64719;52.124;6.226;2024-01-15T04:37:18;1.25;;;0.70;;
76023;SDS011;64719;52.124;6.226;2024-01-15T04:39:44;4.28;;;1.10;;
76023;SDS011;64719;52.124;6.226;2024-01-15T04:42:12;2.50;;;1.10;;
76023;SDS011;64719;52.124;6.226;2024-01-15T04:44:38;5.32;;;1.23;;
76023;SDS011;64719;52.124;6.226;2024-01-15T04:47:05;2.42;;;0.98;;
76023;SDS011;64719;52.124;6.226;2024-01-15T04:49:31;9.18;;;1.30;;
76023;SDS011;64719;52.124;6.226;2024-01-15T04:51:57;4.93;;;1.17;;
76023;SDS011;64719;52.124;6.226;2024-01-15T04:54:24;2.67;;;1.00;;
76023;SDS011;64719;52.124;6.226;2024-01-15T04:56:50;4.07;;;1.15;;
76023;SDS011;64719;52.124;6.226;2024-01-15T04:59:18;3.47;;;0.93;;
76023;SDS011;64719;52.124;6.226;2024-01-15T05:01:44;6.43;;;1.30;;
76023;SDS011;64719;52.124;6.226;2024-01-15T05:04:10;5.35;;;0.82;;
76023;SDS011;64719;52.124;6.226;2024-01-15T05:06:37;4.32;;;1.10;;
76023;SDS011;64719;52.124;6.226;2024-01-15T05:09:03;5.78;;;1.45;;
76023;SDS011;64719;52.124;6.226;2024-01-15T05:11:29;4.13;;;1.27;;
76023;SDS011;64719;52.124;6.226;2024-01-15T05:13:56;2.53;;;1.08;;
76023;SDS011;64719;52.124;6.226;2024-01-15T05:16:23;2.03;;;0.75;;
76023;SDS011;64719;52.124;6.226;2024-01-15T05:18:49;2.83;;;1.00;;
76023;SDS011;64719;52.124;6.226;2024-01-15T05:21:16;4.97;;;1.02;;
76023;SDS011;64719;52.124;6.226;2024-01-15T05:23:42;6.28;;;1.23;;
76023;SDS011;64719;52.124;6.226;2024-01-15T05:26:08;4.97;;;1.45;;
76023;SDS011;64719;52.124;6.226;2024-01-15T05:28:35;2.00;;;0.90;;
76023;SDS011;64719;52.124;6.226;2024-01-15T05:31:01;2.90;;;1.00;;
76023;SDS011;64719;52.124;6.226;2024-01-15T05:33:29;4.72;;;1.10;;
76023;SDS011;64719;52.124;6.226;2024-01-15T05:35:55;9.57;;;2.22;;
76023;SDS011;64719;52.124;6.226;2024-01-15T05:38:23;3.92;;;1.58;;
76023;SDS011;64719;52.124;6.226;2024-01-15T05:40:50;5.65;;;1.20;;
76023;SDS011;64719;52.124;6.226;2024-01-15T05:43:16;3.22;;;1.20;;
76023;SDS011;64719;52.124;6.226;2024-01-15T05:45:43;9.15;;;1.85;;
76023;SDS011;64719;52.124;6.226;2024-01-15T05:48:09;3.33;;;1.38;;
76023;SDS011;64719;52.124;6.226;2024-01-15T05:50:37;10.70;;;2.30;;
76023;SDS011;64719;52.124;6.226;2024-01-15T05:53:03;8.20;;;1.52;;
76023;SDS011;64719;52.124;6.226;2024-01-15T05:55:29;7.60;;;1.90;;
76023;SDS011;64719;52.124;6.226;2024-01-15T05:57:56;9.55;;;1.55;;
76023;SDS011;64719;52.124;6.226;2024-01-15T06:00:22;8.88;;;2.13;;
76023;SDS011;64719;52.124;6.226;2024-01-15T06:02:48;4.90;;;1.52;;
76023;SDS011;64719;52.124;6.226;2024-01-15T06:05:15;4.53;;;1.85;;
76023;SDS011;64719;52.124;6.226;2024-01-15T06:07:42;10.45;;;1.67;;
76023;SDS011;64719;52.124;6.226;2024-01-15T06:10:09;3.92;;;1.40;;
76023;SDS011;64719;52.124;6.226;2024-01-15T06:12:35;5.25;;;1.40;;
76023;SDS011;64719;52.124;6.226;2024-01-15T06:15:02;5.63;;;1.27;;
76023;SDS011;64719;52.124;6.226;2024-01-15T06:17:28;3.42;;;1.55;;
76023;SDS011;64719;52.124;6.226;2024-01-15T06:19:54;2.63;;;1.70;;
76023;SDS011;64719;52.124;6.226;2024-01-15T06:22:22;5.30;;;1.90;;
76023;SDS011;64719;52.124;6.226;2024-01-15T06:24:49;6.30;;;1.48;;
76023;SDS011;64719;52.124;6.226;2024-01-15T06:27:16;8.80;;;1.73;;
76023;SDS011;64719;52.124;6.226;2024-01-15T06:29:44;4.63;;;1.83;;
76023;SDS011;64719;52.124;6.226;2024-01-15T06:32:11;11.55;;;1.95;;
76023;SDS011;64719;52.124;6.226;2024-01-15T06:34:37;9.43;;;2.63;;
76023;SDS011;64719;52.124;6.226;2024-01-15T06:37:04;7.85;;;2.22;;
76023;SDS011;64719;52.124;6.226;2024-01-15T06:39:30;7.00;;;1.95;;
76023;SDS011;64719;52.124;6.226;2024-01-15T06:41:58;4.88;;;2.00;;
76023;SDS011;64719;52.124;6.226;2024-01-15T06:44:24;6.97;;;1.70;;
76023;SDS011;64719;52.124;6.226;2024-01-15T06:46:51;4.80;;;1.48;;
76023;SDS011;64719;52.124;6.226;2024-01-15T06:49:22;4.43;;;1.75;;
76023;SDS011;64719;52.124;6.226;2024-01-15T06:51:48;6.85;;;1.80;;
76023;SDS011;64719;52.124;6.226;2024-01-15T06:54:14;9.32;;;2.28;;
76023;SDS011;64719;52.124;6.226;2024-01-15T06:56:41;7.22;;;1.90;;
76023;SDS011;64719;52.124;6.226;2024-01-15T06:59:08;4.88;;;1.67;;
76023;SDS011;64719;52.124;6.226;2024-01-15T07:01:35;4.50;;;1.60;;
76023;SDS011;64719;52.124;6.226;2024-01-15T07:04:01;10.20;;;1.77;;
76023;SDS011;64719;52.124;6.226;2024-01-15T07:06:28;9.73;;;1.55;;
76023;SDS011;64719;52.124;6.226;2024-01-15T07:08:55;5.00;;;1.95;;
76023;SDS011;64719;52.124;6.226;2024-01-15T07:11:22;5.57;;;2.25;;
76023;SDS011;64719;52.124;6.226;2024-01-15T07:13:48;6.55;;;2.17;;
76023;SDS011;64719;52.124;6.226;2024-01-15T07:16:16;6.47;;;2.60;;
76023;SDS011;64719;52.124;6.226;2024-01-15T07:18:42;7.50;;;2.42;;
76023;SDS011;64719;52.124;6.226;2024-01-15T07:21:08;8.00;;;2.03;;
76023;SDS011;64719;52.124;6.226;2024-01-15T07:23:35;9.43;;;2.25;;
76023;SDS011;64719;52.124;6.226;2024-01-15T07:26:01;6.38;;;2.10;;
76023;SDS011;64719;52.124;6.226;2024-01-15T07:28:28;7.32;;;1.92;;
76023;SDS011;64719;52.124;6.226;2024-01-15T07:30:55;7.25;;;1.88;;
76023;SDS011;64719;52.124;6.226;2024-01-15T07:33:22;10.02;;;2.70;;
76023;SDS011;64719;52.124;6.226;2024-01-15T07:35:49;7.55;;;2.30;;
76023;SDS011;64719;52.124;6.226;2024-01-15T07:38:15;9.23;;;2.58;;
76023;SDS011;64719;52.124;6.226;2024-01-15T07:40:41;3.85;;;1.98;;
76023;SDS011;64719;52.124;6.226;2024-01-15T07:43:08;8.15;;;2.40;;
76023;SDS011;64719;52.124;6.226;2024-01-15T07:45:34;9.48;;;2.63;;
76023;SDS011;64719;52.124;6.226;2024-01-15T07:48:00;4.63;;;2.20;;
76023;SDS011;64719;52.124;6.226;2024-01-15T07:50:29;10.70;;;2.55;;
76023;SDS011;64719;52.124;6.226;2024-01-15T07:52:55;8.90;;;2.45;;
76023;SDS011;64719;52.124;6.226;2024-01-15T07:55:22;7.20;;;2.78;;
76023;SDS011;64719;52.124;6.226;2024-01-15T07:57:48;4.57;;;2.10;;
76023;SDS011;64719;52.124;6.226;2024-01-15T08:00:15;7.75;;;2.45;;
76023;SDS011;64719;52.124;6.226;2024-01-15T08:02:41;3.63;;;1.90;;
76023;SDS011;64719;52.124;6.226;2024-01-15T08:05:08;7.47;;;2.72;;
76023;SDS011;64719;52.124;6.226;2024-01-15T08:07:35;9.77;;;2.50;;
76023;SDS011;64719;52.124;6.226;2024-01-15T08:10:02;8.60;;;2.30;;
76023;SDS011;64719;52.124;6.226;2024-01-15T08:12:28;9.02;;;2.85;;
76023;SDS011;64719;52.124;6.226;2024-01-15T08:14:54;6.22;;;2.15;;
76023;SDS011;64719;52.124;6.226;2024-01-15T08:17:21;8.27;;;3.17;;
76023;SDS011;64719;52.124;6.226;2024-01-15T08:19:47;4.10;;;1.73;;
76023;SDS011;64719;52.124;6.226;2024-01-15T08:22:14;5.20;;;2.33;;
76023;SDS011;64719;52.124;6.226;2024-01-15T08:24:41;7.00;;;2.70;;
76023;SDS011;64719;52.124;6.226;2024-01-15T08:27:08;6.45;;;2.28;;
76023;SDS011;64719;52.124;6.226;2024-01-15T08:29:34;5.95;;;2.25;;
76023;SDS011;64719;52.124;6.226;2024-01-15T08:32:01;6.10;;;2.45;;
76023;SDS011;64719;52.124;6.226;2024-01-15T08:34:27;8.35;;;2.10;;
76023;SDS011;64719;52.124;6.226;2024-01-15T08:36:53;7.35;;;2.70;;
76023;SDS011;64719;52.124;6.226;2024-01-15T08:39:19;13.45;;;3.00;;
76023;SDS011;64719;52.124;6.226;2024-01-15T08:41:47;8.98;;;2.47;;
76023;SDS011;64719;52.124;6.226;2024-01-15T08:44:13;4.70;;;2.13;;
76023;SDS011;64719;52.124;6.226;2024-01-15T08:46:40;5.75;;;2.28;;
76023;SDS011;64719;52.124;6.226;2024-01-15T08:49:06;7.00;;;2.40;;
76023;SDS011;64719;52.124;6.226;2024-01-15T08:51:32;4.45;;;2.00;;
76023;SDS011;64719;52.124;6.226;2024-01-15T08:53:59;4.88;;;2.25;;
76023;SDS011;64719;52.124;6.226;2024-01-15T08:56:25;5.63;;;2.03;;
76023;SDS011;64719;52.124;6.226;2024-01-15T08:58:53;2.75;;;1.63;;
76023;SDS011;64719;52.124;6.226;2024-01-15T09:01:20;5.72;;;2.08;;
76023;SDS011;64719;52.124;6.226;2024-01-15T09:03:46;6.05;;;2.40;;
76023;SDS011;64719;52.124;6.226;2024-01-15T09:06:13;5.57;;;2.58;;
76023;SDS011;64719;52.124;6.226;2024-01-15T09:08:39;4.15;;;1.70;;
76023;SDS011;64719;52.124;6.226;2024-01-15T09:11:06;7.18;;;2.15;;
76023;SDS011;64719;52.124;6.226;2024-01-15T09:13:32;3.35;;;1.50;;
76023;SDS011;64719;52.124;6.226;2024-01-15T09:16:00;4.85;;;1.73;;
76023;SDS011;64719;52.124;6.226;2024-01-15T09:18:27;5.20;;;2.10;;
76023;SDS011;64719;52.124;6.226;2024-01-15T09:20:54;3.28;;;1.80;;
76023;SDS011;64719;52.124;6.226;2024-01-15T09:23:21;3.50;;;1.60;;
76023;SDS011;64719;52.124;6.226;2024-01-15T09:25:47;7.20;;;2.22;;
76023;SDS011;64719;52.124;6.226;2024-01-15T09:28:14;5.07;;;2.28;;
76023;SDS011;64719;52.124;6.226;2024-01-15T09:30:41;5.43;;;2.60;;
76023;SDS011;64719;52.124;6.226;2024-01-15T09:33:08;9.02;;;2.35;;
76023;SDS011;64719;52.124;6.226;2024-01-15T09:35:35;3.65;;;2.15;;
76023;SDS011;64719;52.124;6.226;2024-01-15T09:38:02;6.38;;;2.47;;
76023;SDS011;64719;52.124;6.226;2024-01-15T09:40:29;8.05;;;2.92;;
76023;SDS011;64719;52.124;6.226;2024-01-15T09:42:57;5.93;;;2.45;;
76023;SDS011;64719;52.124;6.226;2024-01-15T09:45:23;7.22;;;3.15;;
76023;SDS011;64719;52.124;6.226;2024-01-15T09:47:49;6.40;;;2.80;;
76023;SDS011;64719;52.124;6.226;2024-01-15T09:50:17;8.23;;;2.40;;
76023;SDS011;64719;52.124;6.226;2024-01-15T09:52:44;5.97;;;2.55;;
76023;SDS011;64719;52.124;6.226;2024-01-15T09:55:10;6.45;;;2.65;;
76023;SDS011;64719;52.124;6.226;2024-01-15T09:57:37;7.68;;;2.65;;
76023;SDS011;64719;52.124;6.226;2024-01-15T10:00:05;5.47;;;2.20;;
76023;SDS011;64719;52.124;6.226;2024-01-15T10:02:31;3.65;;;2.25;;
76023;SDS011;64719;52.124;6.226;2024-01-15T10:04:58;5.43;;;1.90;;
76023;SDS011;64719;52.124;6.226;2024-01-15T10:07:25;6.40;;;1.95;;
76023;SDS011;64719;52.124;6.226;2024-01-15T10:09:53;3.35;;;1.92;;
76023;SDS011;64719;52.124;6.226;2024-01-15T10:12:19;3.67;;;1.80;;
76023;SDS011;64719;52.124;6.226;2024-01-15T10:14:46;6.85;;;2.05;;
76023;SDS011;64719;52.124;6.226;2024-01-15T10:17:14;3.95;;;1.80;;
76023;SDS011;64719;52.124;6.226;2024-01-15T10:19:41;3.25;;;1.60;;
76023;SDS011;64719;52.124;6.226;2024-01-15T10:22:07;3.15;;;1.67;;
76023;SDS011;64719;52.124;6.226;2024-01-15T10:24:36;4.05;;;1.80;;
76023;SDS011;64719;52.124;6.226;2024-01-15T10:29:28;4.72;;;1.73;;
76023;SDS011;64719;52.124;6.226;2024-01-15T10:31:55;4.38;;;1.75;;
76023;SDS011;64719;52.124;6.226;2024-01-15T10:34:21;4.60;;;1.70;;
76023;SDS011;64719;52.124;6.226;2024-01-15T10:36:47;3.70;;;1.73;;
76023;SDS011;64719;52.124;6.226;2024-01-15T10:39:17;6.60;;;1.67;;
76023;SDS011;64719;52.124;6.226;2024-01-15T10:41:45;5.43;;;1.70;;
76023;SDS011;64719;52.124;6.226;2024-01-15T10:44:11;3.75;;;1.65;;
76023;SDS011;64719;52.124;6.226;2024-01-15T10:46:37;4.82;;;1.35;;
76023;SDS011;64719;52.124;6.226;2024-01-15T10:49:04;4.80;;;1.55;;
76023;SDS011;64719;52.124;6.226;2024-01-15T10:51:31;7.63;;;2.20;;
76023;SDS011;64719;52.124;6.226;2024-01-15T10:53:58;6.15;;;1.60;;
76023;SDS011;64719;52.124;6.226;2024-01-15T10:56:25;3.47;;;1.50;;
76023;SDS011;64719;52.124;6.226;2024-01-15T10:58:53;3.65;;;1.48;;
76023;SDS011;64719;52.124;6.226;2024-01-15T11:01:20;6.25;;;1.63;;
76023;SDS011;64719;52.124;6.226;2024-01-15T11:03:46;5.80;;;1.40;;
76023;SDS011;64719;52.124;6.226;2024-01-15T11:06:16;4.95;;;1.73;;
76023;SDS011;64719;52.124;6.226;2024-01-15T11:08:44;6.90;;;2.03;;
76023;SDS011;64719;52.124;6.226;2024-01-15T11:11:11;6.32;;;1.52;;
76023;SDS011;64719;52.124;6.226;2024-01-15T11:13:40;4.82;;;1.45;;
76023;SDS011;64719;52.124;6.226;2024-01-15T11:16:09;5.60;;;1.38;;
76023;SDS011;64719;52.124;6.226;2024-01-15T11:18:36;7.45;;;1.23;;
76023;SDS011;64719;52.124;6.226;2024-01-15T11:21:21;3.47;;;1.15;;
76023;SDS011;64719;52.124;6.226;2024-01-15T11:23:48;3.17;;;1.20;;
76023;SDS011;64719;52.124;6.226;2024-01-15T11:26:26;5.75;;;1.50;;
76023;SDS011;64719;52.124;6.226;2024-01-15T11:28:53;4.65;;;1.05;;
76023;SDS011;64719;52.124;6.226;2024-01-15T11:31:21;5.93;;;1.20;;
76023;SDS011;64719;52.124;6.226;2024-01-15T11:33:51;3.28;;;1.20;;
76023;SDS011;64719;52.124;6.226;2024-01-15T11:36:18;7.28;;;1.40;;
76023;SDS011;64719;52.124;6.226;2024-01-15T11:38:44;5.00;;;1.40;;
76023;SDS011;64719;52.124;6.226;2024-01-15T11:41:13;3.80;;;1.08;;
76023;SDS011;64719;52.124;6.226;2024-01-15T11:43:40;5.03;;;1.17;;
76023;SDS011;64719;52.124;6.226;2024-01-15T11:46:07;3.17;;;1.20;;
76023;SDS011;64719;52.124;6.226;2024-01-15T11:48:41;3.55;;;1.30;;
76023;SDS011;64719;52.124;6.226;2024-01-15T11:51:08;2.30;;;0.90;;
76023;SDS011;64719;52.124;6.226;2024-01-15T11:53:36;4.75;;;1.15;;
76023;SDS011;64719;52.124;6.226;2024-01-15T11:56:03;2.72;;;0.93;;
76023;SDS011;64719;52.124;6.226;2024-01-15T11:58:33;5.85;;;1.35;;
76023;SDS011;64719;52.124;6.226;2024-01-15T12:01:02;4.93;;;1.10;;
76023;SDS011;64719;52.124;6.226;2024-01-15T12:03:28;2.30;;;0.95;;
76023;SDS011;64719;52.124;6.226;2024-01-15T12:05:59;6.40;;;1.35;;
76023;SDS011;64719;52.124;6.226;2024-01-15T12:08:26;4.38;;;1.02;;
76023;SDS011;64719;52.124;6.226;2024-01-15T12:10:53;2.80;;;0.77;;
76023;SDS011;64719;52.124;6.226;2024-01-15T12:13:19;3.55;;;1.00;;
76023;SDS011;64719;52.124;6.226;2024-01-15T12:15:46;2.88;;;0.95;;
76023;SDS011;64719;52.124;6.226;2024-01-15T12:18:13;5.30;;;1.08;;
76023;SDS011;64719;52.124;6.226;2024-01-15T12:20:40;4.78;;;1.00;;
76023;SDS011;64719;52.124;6.226;2024-01-15T12:23:09;3.03;;;0.80;;
76023;SDS011;64719;52.124;6.226;2024-01-15T12:28:02;4.53;;;0.95;;
76023;SDS011;64719;52.124;6.226;2024-01-15T12:30:29;1.67;;;0.90;;
76023;SDS011;64719;52.124;6.226;2024-01-15T12:32:56;3.65;;;1.02;;
76023;SDS011;64719;52.124;6.226;2024-01-15T12:35:26;5.45;;;1.05;;
76023;SDS011;64719;52.124;6.226;2024-01-15T12:37:52;3.28;;;1.00;;
76023;SDS011;64719;52.124;6.226;2024-01-15T12:40:22;6.65;;;0.93;;
76023;SDS011;64719;52.124;6.226;2024-01-15T12:42:48;4.55;;;0.85;;
76023;SDS011;64719;52.124;6.226;2024-01-15T12:45:13;1.48;;;0.77;;
76023;SDS011;64719;52.124;6.226;2024-01-15T12:47:40;4.13;;;0.90;;
76023;SDS011;64719;52.124;6.226;2024-01-15T12:50:07;2.75;;;1.20;;
76023;SDS011;64719;52.124;6.226;2024-01-15T12:52:33;1.52;;;0.88;;
76023;SDS011;64719;52.124;6.226;2024-01-15T12:55:00;2.03;;;0.57;;
76023;SDS011;64719;52.124;6.226;2024-01-15T12:57:28;4.38;;;0.70;;
76023;SDS011;64719;52.124;6.226;2024-01-15T12:59:54;4.20;;;0.90;;
76023;SDS011;64719;52.124;6.226;2024-01-15T13:02:20;2.30;;;0.70;;
76023;SDS011;64719;52.124;6.226;2024-01-15T13:04:47;3.22;;;0.77;;
76023;SDS011;64719;52.124;6.226;2024-01-15T13:07:14;2.83;;;0.85;;
76023;SDS011;64719;52.124;6.226;2024-01-15T13:09:40;3.08;;;0.93;;
76023;SDS011;64719;52.124;6.226;2024-01-15T13:12:07;3.17;;;0.68;;
76023;SDS011;64719;52.124;6.226;2024-01-15T13:14:35;3.13;;;0.90;;
76023;SDS011;64719;52.124;6.226;2024-01-15T13:17:01;1.83;;;0.70;;
76023;SDS011;64719;52.124;6.226;2024-01-15T13:19:28;3.72;;;0.65;;
76023;SDS011;64719;52.124;6.226;2024-01-15T13:21:54;2.22;;;0.55;;
76023;SDS011;64719;52.124;6.226;2024-01-15T13:24:23;1.40;;;0.63;;
76023;SDS011;64719;52.124;6.226;2024-01-15T13:26:50;5.63;;;0.90;;
76023;SDS011;64719;52.124;6.226;2024-01-15T13:29:16;3.58;;;0.80;;
76023;SDS011;64719;52.124;6.226;2024-01-15T13:31:44;2.25;;;0.88;;
76023;SDS011;64719;52.124;6.226;2024-01-15T13:34:11;3.05;;;1.00;;
76023;SDS011;64719;52.124;6.226;2024-01-15T13:36:38;3.50;;;1.23;;
76023;SDS011;64719;52.124;6.226;2024-01-15T13:39:04;4.38;;;1.42;;
76023;SDS011;64719;52.124;6.226;2024-01-15T13:41:33;3.67;;;0.95;;
76023;SDS011;64719;52.124;6.226;2024-01-15T13:44:00;2.15;;;0.70;;
76023;SDS011;64719;52.124;6.226;2024-01-15T13:46:26;6.13;;;1.00;;
76023;SDS011;64719;52.124;6.226;2024-01-15T13:48:54;3.83;;;1.33;;
76023;SDS011;64719;52.124;6.226;2024-01-15T13:51:21;1.83;;;0.70;;
76023;SDS011;64719;52.124;6.226;2024-01-15T13:53:48;3.75;;;0.90;;
76023;SDS011;64719;52.124;6.226;2024-01-15T13:56:14;4.25;;;0.80;;
76023;SDS011;64719;52.124;6.226;2024-01-15T13:58:41;4.18;;;1.23;;
76023;SDS011;64719;52.124;6.226;2024-01-15T14:01:07;5.82;;;0.88;;
76023;SDS011;64719;52.124;6.226;2024-01-15T14:03:34;2.38;;;0.70;;
76023;SDS011;64719;52.124;6.226;2024-01-15T14:06:02;3.20;;;0.63;;
76023;SDS011;64719;52.124;6.226;2024-01-15T14:08:31;7.50;;;1.45;;
76023;SDS011;64719;52.124;6.226;2024-01-15T14:10:57;4.85;;;0.60;;
76023;SDS011;64719;52.124;6.226;2024-01-15T14:13:23;6.43;;;0.95;;
76023;SDS011;64719;52.124;6.226;2024-01-15T14:15:50;4.57;;;1.40;;
76023;SDS011;64719;52.124;6.226;2024-01-15T14:18:16;6.53;;;1.20;;
76023;SDS011;64719;52.124;6.226;2024-01-15T14:20:42;3.28;;;1.02;;
76023;SDS011;64719;52.124;6.226;2024-01-15T14:23:10;4.75;;;1.20;;
76023;SDS011;64719;52.124;6.226;2024-01-15T14:25:36;5.60;;;0.90;;
76023;SDS011;64719;52.124;6.226;2024-01-15T14:28:03;8.27;;;1.55;;
76023;SDS011;64719;52.124;6.226;2024-01-15T14:30:30;5.85;;;1.15;;
76023;SDS011;64719;52.124;6.226;2024-01-15T14:32:57;6.38;;;1.30;;
76023;SDS011;64719;52.124;6.226;2024-01-15T14:35:23;3.33;;;0.70;;
76023;SDS011;64719;52.124;6.226;2024-01-15T14:37:49;3.25;;;0.85;;
76023;SDS011;64719;52.124;6.226;2024-01-15T14:40:17;4.60;;;1.15;;
76023;SDS011;64719;52.124;6.226;2024-01-15T14:42:43;3.97;;;0.73;;
76023;SDS011;64719;52.124;6.226;2024-01-15T14:45:10;2.97;;;0.70;;
76023;SDS011;64719;52.124;6.226;2024-01-15T14:47:37;2.47;;;0.68;;
76023;SDS011;64719;52.124;6.226;2024-01-15T14:50:04;5.40;;;1.13;;